Donnie Sonier — WDF9285 — position and weather

sailwx.info

Track history (hours):
 
Tides and Currents Weather Stations Pressure Air Temp Water Temp Dewpoint Dewpoint Depression Visibility Wind Speed Wind Dir Waves Ship Positions

Donnie Sonier

Owner: LeBeouf Bros. Towing, LLC, Houma, LA. More information available from US FCC via Universal Licensing System and Coast Guard Vessel Documentation Center.

Last reported at 2016-Sep-20 08:23 UTC. Time now 2016-Sep-28 06:54 UTC.
Position N 29°48' W 091°49'.

Length 22 m.

Type: Tug. MMSI: 367503580.

Date/timePositionNaut miles runAvg speedWind from/ knotsBaromVisibWave heightAir tempDewpointWater temp
2016-Sep-20 08:23N 29°48' W 091°49'8 4.5
2016-Sep-20 06:33N 29°50' W 091°58'16 4.1
2016-Sep-20 02:33N 29°49' W 092°17'40 3.9
2016-Sep-19 16:16N 29°56' W 093°03'7 4.0
2016-Sep-19 14:33N 29°57' W 093°11'4 4.2
2016-Sep-19 13:33N 30°01' W 093°14'4 3.7
2016-Sep-19 12:33N 30°04' W 093°16'3 3.2
2016-Sep-19 11:33N 30°06' W 093°19'8 3.9
2016-Sep-19 09:33N 30°04' W 093°28'10 4.9
2016-Sep-19 07:33N 30°04' W 093°39'76 3.6
2016-Sep-18 10:33N 29°42' W 095°03'1 1.1
2016-Sep-18 09:25N 29°42' W 095°01'1 0.0
2016-Sep-16 15:31N 29°42' W 095°03'0 0.0
2016-Sep-16 12:12N 29°42' W 095°03'0 0.0
2016-Sep-16 09:28N 29°42' W 095°03'0 0.0
2016-Sep-16 07:27N 29°42' W 095°03'0 0.0
2016-Sep-16 03:32N 29°42' W 095°03'0 0.0
2016-Sep-16 02:27N 29°42' W 095°03'0 0.0
2016-Sep-16 00:29N 29°42' W 095°03'0 0.0
2016-Sep-15 22:33N 29°42' W 095°03'0 0.0
2016-Sep-15 21:30N 29°42' W 095°03'0 0.0
2016-Sep-15 20:32N 29°42' W 095°03'0 0.0
2016-Sep-15 18:28N 29°42' W 095°03'0 0.0
2016-Sep-15 12:23N 29°42' W 095°03'0 0.0
2016-Sep-15 11:28N 29°42' W 095°03'0 0.0
2016-Sep-14 17:19N 29°42' W 095°03'0 0.0
2016-Sep-14 13:12N 29°42' W 095°03'0 0.0
2016-Sep-14 12:32N 29°42' W 095°03'0 0.0
2016-Sep-14 10:32N 29°42' W 095°03'0 0.0
2016-Sep-14 09:33N 29°42' W 095°03'0 0.0
2016-Sep-14 08:27N 29°42' W 095°03'0 0.0
2016-Sep-14 07:32N 29°42' W 095°03'0 0.0
2016-Sep-14 06:33N 29°42' W 095°03'0 0.0
2016-Sep-14 03:29N 29°42' W 095°03'0 0.0
2016-Sep-13 22:29N 29°42' W 095°03'0 0.0
2016-Sep-13 20:14N 29°42' W 095°03'0 0.0
2016-Sep-13 18:32N 29°42' W 095°03'0 0.0
2016-Sep-13 17:33N 29°42' W 095°03'0 0.0
2016-Sep-13 16:31N 29°42' W 095°03'0 0.0
2016-Sep-13 11:30N 29°42' W 095°03'  
Track history (hours):
 
Tides and Currents Weather Stations Pressure Air Temp Water Temp Dewpoint Dewpoint Depression Visibility Wind Speed Wind Dir Waves Ship Positions

Donnie Sonier

Owner: LeBeouf Bros. Towing, LLC, Houma, LA. More information available from US FCC via Universal Licensing System and Coast Guard Vessel Documentation Center.

Last reported at 2016-Sep-20 08:23 UTC. Time now 2016-Sep-28 06:54 UTC.
Position N 29°48' W 091°49'.

Length 22 m.

Type: Tug. MMSI: 367503580.

Date/timePositionNaut miles runAvg speedWind from/ knotsBaromVisibWave heightAir tempDewpointWater temp
2016-Sep-20 08:23N 29°48' W 091°49'8 4.5
2016-Sep-20 06:33N 29°50' W 091°58'16 4.1
2016-Sep-20 02:33N 29°49' W 092°17'40 3.9
2016-Sep-19 16:16N 29°56' W 093°03'7 4.0
2016-Sep-19 14:33N 29°57' W 093°11'4 4.2
2016-Sep-19 13:33N 30°01' W 093°14'4 3.7
2016-Sep-19 12:33N 30°04' W 093°16'3 3.2
2016-Sep-19 11:33N 30°06' W 093°19'8 3.9
2016-Sep-19 09:33N 30°04' W 093°28'10 4.9
2016-Sep-19 07:33N 30°04' W 093°39'76 3.6
2016-Sep-18 10:33N 29°42' W 095°03'1 1.1
2016-Sep-18 09:25N 29°42' W 095°01'1 0.0
2016-Sep-16 15:31N 29°42' W 095°03'0 0.0
2016-Sep-16 12:12N 29°42' W 095°03'0 0.0
2016-Sep-16 09:28N 29°42' W 095°03'0 0.0
2016-Sep-16 07:27N 29°42' W 095°03'0 0.0
2016-Sep-16 03:32N 29°42' W 095°03'0 0.0
2016-Sep-16 02:27N 29°42' W 095°03'0 0.0
2016-Sep-16 00:29N 29°42' W 095°03'0 0.0
2016-Sep-15 22:33N 29°42' W 095°03'0 0.0
2016-Sep-15 21:30N 29°42' W 095°03'0 0.0
2016-Sep-15 20:32N 29°42' W 095°03'0 0.0
2016-Sep-15 18:28N 29°42' W 095°03'0 0.0
2016-Sep-15 12:23N 29°42' W 095°03'0 0.0
2016-Sep-15 11:28N 29°42' W 095°03'0 0.0
2016-Sep-14 17:19N 29°42' W 095°03'0 0.0
2016-Sep-14 13:12N 29°42' W 095°03'0 0.0
2016-Sep-14 12:32N 29°42' W 095°03'0 0.0
2016-Sep-14 10:32N 29°42' W 095°03'0 0.0
2016-Sep-14 09:33N 29°42' W 095°03'0 0.0
2016-Sep-14 08:27N 29°42' W 095°03'0 0.0
2016-Sep-14 07:32N 29°42' W 095°03'0 0.0
2016-Sep-14 06:33N 29°42' W 095°03'0 0.0
2016-Sep-14 03:29N 29°42' W 095°03'0 0.0
2016-Sep-13 22:29N 29°42' W 095°03'0 0.0
2016-Sep-13 20:14N 29°42' W 095°03'0 0.0
2016-Sep-13 18:32N 29°42' W 095°03'0 0.0
2016-Sep-13 17:33N 29°42' W 095°03'0 0.0
2016-Sep-13 16:31N 29°42' W 095°03'0 0.0
2016-Sep-13 11:30N 29°42' W 095°03'  

Dump ship's entire track history